createdAt,value
2022-09-17T00:00:55.159Z,5.43
2022-09-17T00:03:29.292Z,5.63
2022-09-17T00:06:01.353Z,7.20
2022-09-17T00:08:28.842Z,9.05
2022-09-17T00:10:55.691Z,6.85
2022-09-17T00:13:23.699Z,7.80
2022-09-17T00:15:52.445Z,5.47
2022-09-17T00:18:19.434Z,6.63
2022-09-17T00:20:47.437Z,4.78
2022-09-17T00:23:14.707Z,6.00
2022-09-17T00:25:43.563Z,4.65
2022-09-17T00:28:11.835Z,7.38
2022-09-17T00:30:43.598Z,8.45
2022-09-17T00:33:16.267Z,6.60
2022-09-17T00:35:44.153Z,5.00
2022-09-17T00:38:11.322Z,7.35
2022-09-17T00:40:38.733Z,5.32
2022-09-17T00:43:11.539Z,6.03
2022-09-17T00:45:40.040Z,9.07
2022-09-17T00:48:07.642Z,6.97
2022-09-17T00:50:40.391Z,8.60
2022-09-17T00:53:10.478Z,5.90
2022-09-17T00:55:40.029Z,6.70
2022-09-17T00:58:08.676Z,5.57
2022-09-17T01:00:36.333Z,4.50
2022-09-17T01:03:03.925Z,5.63
2022-09-17T01:05:39.761Z,8.38
2022-09-17T01:08:37.238Z,6.63
2022-09-17T01:11:24.166Z,7.32
2022-09-17T01:14:12.814Z,8.60
2022-09-17T01:17:22.263Z,8.18
2022-09-17T01:20:32.140Z,7.53
2022-09-17T01:23:31.308Z,6.25
2022-09-17T01:26:04.654Z,10.45
2022-09-17T01:28:34.246Z,7.25
2022-09-17T01:31:10.197Z,5.20
2022-09-17T01:33:52.249Z,7.30
2022-09-17T01:36:50.288Z,6.00
2022-09-17T01:39:44.600Z,11.30
2022-09-17T01:42:31.658Z,5.65
2022-09-17T01:45:04.540Z,5.78
2022-09-17T01:47:45.778Z,4.50
2022-09-17T01:50:17.390Z,6.30
2022-09-17T01:52:46.213Z,4.57
2022-09-17T01:55:16.006Z,5.47
2022-09-17T01:57:49.826Z,4.78
2022-09-17T02:00:17.821Z,6.03
2022-09-17T02:02:50.843Z,5.30
2022-09-17T02:05:22.340Z,7.45
2022-09-17T02:08:04.091Z,6.65
2022-09-17T02:10:34.943Z,6.90
2022-09-17T02:13:08.208Z,4.47
2022-09-17T02:15:38.523Z,6.60
2022-09-17T02:18:20.006Z,6.10
2022-09-17T02:20:53.263Z,6.43
2022-09-17T02:23:25.722Z,6.85
2022-09-17T02:25:57.519Z,8.38
2022-09-17T02:28:36.549Z,8.13
2022-09-17T02:31:04.042Z,6.57
2022-09-17T02:33:31.804Z,10.23
2022-09-17T02:35:58.609Z,7.72
2022-09-17T02:38:26.754Z,6.72
2022-09-17T02:41:18.913Z,6.25
2022-09-17T02:44:08.757Z,5.95
2022-09-17T02:46:57.557Z,5.95
2022-09-17T02:49:36.326Z,8.05
2022-09-17T02:52:37.067Z,6.90
2022-09-17T02:55:18.482Z,8.63
2022-09-17T02:57:54.755Z,7.55
2022-09-17T03:00:23.401Z,6.68
2022-09-17T03:03:07.908Z,7.38
2022-09-17T03:05:36.774Z,8.40
2022-09-17T03:08:03.951Z,8.32
2022-09-17T03:10:33.640Z,8.48
2022-09-17T03:13:00.707Z,7.00
2022-09-17T03:15:28.412Z,6.05
2022-09-17T03:17:55.477Z,6.50
2022-09-17T03:20:22.628Z,5.70
2022-09-17T03:22:49.465Z,6.80
2022-09-17T03:25:16.332Z,6.25
2022-09-17T03:27:43.394Z,6.13
2022-09-17T03:30:10.318Z,6.45
2022-09-17T03:32:37.108Z,9.10
2022-09-17T03:35:04.332Z,8.73
2022-09-17T03:37:33.175Z,6.03
2022-09-17T03:40:00.482Z,7.18
2022-09-17T03:42:27.912Z,6.28
2022-09-17T03:44:55.133Z,5.47
2022-09-17T03:47:22.070Z,5.35
2022-09-17T03:49:49.145Z,5.05
2022-09-17T03:52:15.991Z,8.95
2022-09-17T03:54:42.820Z,5.18
2022-09-17T03:57:09.846Z,6.28
2022-09-17T03:59:36.713Z,4.75
2022-09-17T04:02:03.788Z,3.95
2022-09-17T04:04:31.254Z,7.10
2022-09-17T04:06:58.129Z,5.57
2022-09-17T04:09:25.864Z,7.85
2022-09-17T04:11:53.843Z,10.57
2022-09-17T04:14:20.627Z,6.68
2022-09-17T04:16:47.672Z,6.70
2022-09-17T04:19:14.740Z,6.43
2022-09-17T04:21:41.635Z,9.25
2022-09-17T04:24:09.062Z,4.85
2022-09-17T04:26:36.181Z,3.97
2022-09-17T04:29:03.534Z,5.43
2022-09-17T04:31:30.419Z,6.22
2022-09-17T04:33:57.532Z,4.70
2022-09-17T04:36:25.297Z,5.20
2022-09-17T04:38:52.138Z,6.00
2022-09-17T04:41:19.477Z,6.25
2022-09-17T04:43:46.391Z,5.25
2022-09-17T04:46:14.362Z,6.47
2022-09-17T04:48:41.663Z,5.70
2022-09-17T04:51:08.515Z,4.38
2022-09-17T04:53:35.331Z,6.07
2022-09-17T04:56:02.510Z,7.25
2022-09-17T04:58:32.802Z,4.57
2022-09-17T05:00:59.755Z,7.85
2022-09-17T05:03:26.951Z,5.45
2022-09-17T05:05:53.731Z,5.50
2022-09-17T05:08:22.919Z,5.47
2022-09-17T05:10:51.360Z,4.50
2022-09-17T05:13:18.971Z,5.20
2022-09-17T05:15:45.828Z,6.85
2022-09-17T05:18:13.311Z,6.70
2022-09-17T05:20:40.119Z,7.35
2022-09-17T05:23:07.014Z,5.60
2022-09-17T05:25:34.022Z,3.58
2022-09-17T05:28:01.427Z,5.93
2022-09-17T05:30:28.292Z,6.85
2022-09-17T05:33:03.152Z,6.80
2022-09-17T05:35:31.261Z,8.23
2022-09-17T05:38:03.833Z,5.35
2022-09-17T05:40:32.817Z,5.35
2022-09-17T05:43:01.191Z,5.90
2022-09-17T05:45:29.382Z,5.63
2022-09-17T05:48:00.409Z,5.30
2022-09-17T05:50:28.768Z,5.13
2022-09-17T05:52:56.753Z,4.18
2022-09-17T05:55:24.231Z,6.40
2022-09-17T05:57:51.392Z,5.70
2022-09-17T06:00:18.981Z,5.20
2022-09-17T06:02:45.969Z,5.60
2022-09-17T06:05:13.090Z,9.13
2022-09-17T06:07:40.003Z,8.85
2022-09-17T06:10:08.471Z,7.68
2022-09-17T06:12:35.734Z,9.25
2022-09-17T06:15:04.452Z,7.03
2022-09-17T06:17:35.192Z,5.70
2022-09-17T06:20:03.197Z,5.38
2022-09-17T06:22:30.206Z,6.18
2022-09-17T06:24:57.126Z,9.38
2022-09-17T06:27:24.145Z,6.32
2022-09-17T06:29:50.998Z,7.85
2022-09-17T06:32:17.838Z,5.72
2022-09-17T06:34:44.927Z,6.65
2022-09-17T06:37:11.736Z,6.35
2022-09-17T06:39:38.535Z,5.45
2022-09-17T06:42:06.274Z,6.07
2022-09-17T06:44:33.072Z,6.07
2022-09-17T06:46:59.997Z,7.07
2022-09-17T06:49:27.283Z,5.90
2022-09-17T06:51:54.184Z,5.57
2022-09-17T06:54:21.049Z,5.60
2022-09-17T06:56:48.107Z,7.13
2022-09-17T06:59:14.991Z,4.05
2022-09-17T07:01:42.034Z,7.60
2022-09-17T07:04:09.084Z,5.20
2022-09-17T07:06:35.927Z,4.20
2022-09-17T07:09:02.739Z,4.28
2022-09-17T07:11:31.608Z,5.82
2022-09-17T07:13:58.481Z,5.82
2022-09-17T07:16:26.814Z,5.80
2022-09-17T07:18:53.886Z,5.38
2022-09-17T07:21:20.713Z,6.05
2022-09-17T07:23:47.530Z,6.35
2022-09-17T07:26:15.881Z,5.35
2022-09-17T07:28:44.043Z,5.70
2022-09-17T07:31:16.117Z,3.80
2022-09-17T07:33:44.365Z,5.50
2022-09-17T07:36:13.015Z,8.77
2022-09-17T07:38:39.871Z,6.50
2022-09-17T07:41:12.974Z,7.35
2022-09-17T07:43:40.719Z,4.68
2022-09-17T07:46:09.059Z,5.53
2022-09-17T07:48:36.112Z,11.13
2022-09-17T07:51:03.008Z,7.05
2022-09-17T07:53:29.795Z,3.08
2022-09-17T07:56:00.693Z,5.03
2022-09-17T07:58:33.616Z,4.28
2022-09-17T08:01:06.994Z,7.10
2022-09-17T08:03:35.136Z,4.03
2022-09-17T08:06:13.352Z,4.72
2022-09-17T08:08:40.820Z,6.10
2022-09-17T08:11:13.071Z,6.45
2022-09-17T08:13:40.235Z,5.63
2022-09-17T08:16:09.695Z,5.20
2022-09-17T08:18:36.826Z,5.50
2022-09-17T08:21:05.570Z,6.45
2022-09-17T08:23:35.314Z,5.18
2022-09-17T08:26:02.987Z,6.07
2022-09-17T08:28:31.149Z,3.70
2022-09-17T08:31:06.205Z,5.57
2022-09-17T08:33:35.342Z,4.55
2022-09-17T08:36:02.510Z,7.63
2022-09-17T08:38:35.703Z,5.90
2022-09-17T08:41:18.886Z,3.47
2022-09-17T08:44:25.471Z,5.78
2022-09-17T08:46:59.067Z,3.97
2022-09-17T08:49:36.299Z,7.95
2022-09-17T08:52:12.178Z,4.53
2022-09-17T08:54:54.227Z,6.28
2022-09-17T08:57:45.493Z,4.75
2022-09-17T09:00:18.674Z,5.45
2022-09-17T09:03:03.804Z,6.03
2022-09-17T09:05:43.789Z,8.02
2022-09-17T09:08:37.027Z,5.15
2022-09-17T09:11:13.629Z,4.38
2022-09-17T09:13:43.627Z,3.65
2022-09-17T09:16:20.866Z,4.20
2022-09-17T09:18:51.801Z,3.15
2022-09-17T09:21:57.657Z,3.70
2022-09-17T09:24:26.582Z,3.35
2022-09-17T09:27:22.506Z,3.83
2022-09-17T09:30:23.685Z,6.55
2022-09-17T09:32:53.433Z,6.35
2022-09-17T09:35:27.518Z,3.70
2022-09-17T09:37:59.883Z,7.07
2022-09-17T09:40:37.562Z,4.28
2022-09-17T09:43:15.705Z,3.80
2022-09-17T09:45:54.899Z,4.82
2022-09-17T09:48:59.611Z,4.90
2022-09-17T09:52:23.909Z,5.07
2022-09-17T09:55:29.428Z,3.47
2022-09-17T09:58:04.769Z,6.25
2022-09-17T10:00:38.489Z,3.95
2022-09-17T10:03:23.025Z,4.10
2022-09-17T10:06:12.657Z,6.07
2022-09-17T10:08:41.632Z,4.90
2022-09-17T10:11:11.367Z,10.05
2022-09-17T10:13:38.406Z,3.33
2022-09-17T10:16:20.145Z,7.82
2022-09-17T10:18:48.447Z,6.60
2022-09-17T10:21:36.000Z,9.65
2022-09-17T10:24:04.394Z,6.15
2022-09-17T10:26:34.036Z,7.00
2022-09-17T10:29:02.842Z,7.18
2022-09-17T10:31:48.466Z,7.47
2022-09-17T10:34:33.875Z,4.45
2022-09-17T10:37:00.779Z,7.00
2022-09-17T10:39:34.039Z,4.85
2022-09-17T10:42:03.971Z,6.50
2022-09-17T10:44:35.924Z,6.97
2022-09-17T10:47:29.951Z,6.90
2022-09-17T10:50:01.586Z,4.78
2022-09-17T10:52:36.333Z,8.07
2022-09-17T10:55:12.143Z,3.47
2022-09-17T10:57:48.153Z,12.95
2022-09-17T11:00:20.318Z,5.35
2022-09-17T11:02:59.523Z,23.42
2022-09-17T11:05:38.966Z,4.50
2022-09-17T11:08:10.994Z,5.97
2022-09-17T11:11:03.184Z,6.40
2022-09-17T11:13:33.065Z,3.78
2022-09-17T11:16:09.185Z,3.47
2022-09-17T11:18:41.216Z,2.58
2022-09-17T11:21:19.093Z,4.05
2022-09-17T11:24:17.910Z,3.65
2022-09-17T11:26:47.865Z,3.63
2022-09-17T11:29:26.356Z,11.60
2022-09-17T11:32:11.019Z,3.45
2022-09-17T11:34:51.194Z,1.92
2022-09-17T11:37:32.692Z,4.35
2022-09-17T11:40:13.813Z,1.92
2022-09-17T11:42:54.901Z,2.70
2022-09-17T11:45:26.097Z,2.85
2022-09-17T11:48:00.170Z,6.85
2022-09-17T11:50:31.717Z,4.45
2022-09-17T11:53:08.859Z,1.65
2022-09-17T11:55:50.844Z,4.13
2022-09-17T11:58:30.524Z,13.90
2022-09-17T12:01:04.081Z,4.38
2022-09-17T12:03:34.907Z,6.20
2022-09-17T12:06:08.130Z,8.30
2022-09-17T12:08:53.740Z,6.13
2022-09-17T12:11:28.417Z,4.45
2022-09-17T12:13:58.837Z,5.43
2022-09-17T12:16:26.815Z,7.60
2022-09-17T12:19:05.568Z,2.35
2022-09-17T12:21:46.772Z,2.38
2022-09-17T12:24:23.751Z,3.03
2022-09-17T12:26:59.084Z,3.05
2022-09-17T12:30:04.728Z,4.93
2022-09-17T12:32:34.791Z,10.98
2022-09-17T12:35:17.501Z,6.57
2022-09-17T12:38:15.414Z,4.03
2022-09-17T12:40:54.631Z,2.50
2022-09-17T12:43:46.675Z,2.40
2022-09-17T12:46:16.349Z,2.65
2022-09-17T12:49:01.946Z,2.85
2022-09-17T12:51:47.148Z,1.83
2022-09-17T12:54:17.200Z,2.97
2022-09-17T12:57:11.551Z,3.20
2022-09-17T12:59:49.094Z,2.10
2022-09-17T13:02:22.297Z,4.47
2022-09-17T13:05:15.074Z,3.83
2022-09-17T13:08:00.076Z,4.43
2022-09-17T13:10:33.143Z,5.45
2022-09-17T13:13:29.176Z,4.38
2022-09-17T13:16:19.844Z,5.43
2022-09-17T13:19:16.093Z,6.50
2022-09-17T13:21:55.695Z,1.70
2022-09-17T13:24:25.278Z,2.47
2022-09-17T13:26:54.214Z,3.35
2022-09-17T13:29:45.977Z,4.25
2022-09-17T13:32:34.866Z,6.55
2022-09-17T13:35:10.437Z,2.67
2022-09-17T13:37:41.395Z,2.78
2022-09-17T13:40:24.248Z,5.38
2022-09-17T13:42:56.523Z,4.40
2022-09-17T13:45:24.897Z,4.55
2022-09-17T13:48:08.380Z,5.40
2022-09-17T13:50:44.392Z,3.58
2022-09-17T13:53:17.114Z,7.30
2022-09-17T13:55:51.913Z,5.30
2022-09-17T13:58:18.926Z,4.35
2022-09-17T14:01:05.550Z,5.40
2022-09-17T14:03:37.247Z,6.85
2022-09-17T14:06:14.954Z,6.22
2022-09-17T14:08:45.393Z,4.40
2022-09-17T14:11:28.409Z,5.07
2022-09-17T14:14:21.069Z,4.40
2022-09-17T14:16:50.404Z,5.00
2022-09-17T14:19:26.894Z,6.65
2022-09-17T14:22:02.411Z,4.50
2022-09-17T14:24:44.853Z,5.70
2022-09-17T14:27:41.463Z,4.35
2022-09-17T14:30:15.412Z,4.43
2022-09-17T14:32:42.305Z,5.88
2022-09-17T14:35:22.372Z,3.80
2022-09-17T14:37:54.951Z,6.60
2022-09-17T14:40:24.075Z,5.25
2022-09-17T14:42:55.194Z,5.03
2022-09-17T14:45:28.847Z,4.25
2022-09-17T14:48:28.015Z,7.78
2022-09-17T14:51:22.934Z,4.95
2022-09-17T14:54:26.295Z,6.13
2022-09-17T14:57:03.149Z,5.65
2022-09-17T14:59:55.699Z,6.57
2022-09-17T15:02:31.434Z,7.65
2022-09-17T15:04:58.946Z,5.53
2022-09-17T15:07:26.714Z,9.05
2022-09-17T15:09:55.522Z,5.18
2022-09-17T15:12:28.828Z,5.40
2022-09-17T15:14:57.108Z,5.53
2022-09-17T15:17:24.322Z,7.50
2022-09-17T15:19:54.971Z,5.10
2022-09-17T15:22:30.176Z,3.78
2022-09-17T15:25:03.557Z,3.75
2022-09-17T15:27:41.531Z,8.32
2022-09-17T15:30:20.287Z,5.82
2022-09-17T15:32:55.417Z,5.82
2022-09-17T15:35:24.121Z,9.98
2022-09-17T15:38:18.864Z,7.32
2022-09-17T15:40:41.398Z,8.68
2022-09-17T15:43:30.317Z,6.68
2022-09-17T15:46:01.581Z,5.68
2022-09-17T15:48:35.127Z,7.28
2022-09-17T15:51:05.419Z,6.60
2022-09-17T15:53:34.957Z,7.53
2022-09-17T15:56:14.091Z,11.00
2022-09-17T15:58:41.043Z,6.50
2022-09-17T16:01:17.088Z,8.25
2022-09-17T16:03:45.431Z,7.80
2022-09-17T16:06:18.472Z,7.70
2022-09-17T16:08:49.260Z,10.20
2022-09-17T16:11:16.654Z,16.77
2022-09-17T16:13:43.723Z,9.82
2022-09-17T16:16:18.642Z,11.25
2022-09-17T16:18:45.741Z,13.35
2022-09-17T16:21:13.786Z,8.57
2022-09-17T16:23:40.768Z,10.30
2022-09-17T16:26:10.914Z,12.25
2022-09-17T16:28:38.871Z,9.25
2022-09-17T16:31:06.091Z,9.32
2022-09-17T16:33:32.945Z,10.48
2022-09-17T16:35:59.996Z,10.40
2022-09-17T16:38:26.799Z,14.43
2022-09-17T16:40:53.678Z,13.23
2022-09-17T16:43:21.161Z,11.88
2022-09-17T16:46:09.244Z,11.90
2022-09-17T16:48:37.190Z,9.60
2022-09-17T16:51:08.755Z,10.73
2022-09-17T16:53:35.645Z,11.73
2022-09-17T16:56:07.389Z,10.38
2022-09-17T16:58:34.640Z,9.73
2022-09-17T17:01:09.309Z,15.43
2022-09-17T17:03:36.966Z,11.98
2022-09-17T17:06:03.934Z,16.65
2022-09-17T17:08:34.157Z,14.70
2022-09-17T17:11:01.594Z,16.75
2022-09-17T17:13:28.850Z,12.52
2022-09-17T17:15:55.702Z,22.48
2022-09-17T17:18:23.260Z,96.18
2022-09-17T17:20:50.405Z,188.48
2022-09-17T17:23:17.547Z,96.57
2022-09-17T17:25:44.783Z,65.57
2022-09-17T17:28:11.619Z,69.60
2022-09-17T17:30:38.606Z,43.88
2022-09-17T17:33:05.693Z,22.25
2022-09-17T17:35:32.594Z,11.10
2022-09-17T17:37:59.482Z,13.25
2022-09-17T17:40:26.896Z,49.45
2022-09-17T17:42:54.783Z,66.38
2022-09-17T17:45:21.953Z,39.05
2022-09-17T17:47:49.095Z,26.05
2022-09-17T17:50:16.100Z,20.85
2022-09-17T17:52:48.022Z,14.52
2022-09-17T17:55:16.557Z,11.30
2022-09-17T17:57:43.418Z,20.75
2022-09-17T18:00:12.485Z,27.55
2022-09-17T18:02:40.397Z,24.33
2022-09-17T18:05:07.586Z,30.27
2022-09-17T18:07:34.545Z,36.60
2022-09-17T18:10:01.551Z,23.83
2022-09-17T18:12:28.462Z,18.20
2022-09-17T18:14:55.261Z,23.05
2022-09-17T18:17:22.350Z,15.07
2022-09-17T18:19:49.244Z,15.60
2022-09-17T18:22:16.034Z,14.73
2022-09-17T18:24:43.044Z,14.18
2022-09-17T18:27:09.978Z,18.08
2022-09-17T18:29:37.004Z,17.58
2022-09-17T18:32:04.167Z,14.23
2022-09-17T18:34:32.250Z,15.23
2022-09-17T18:36:59.100Z,14.90
2022-09-17T18:39:57.334Z,16.27
2022-09-17T18:42:12.999Z,16.38
2022-09-17T18:44:40.028Z,15.95
2022-09-17T18:47:06.967Z,13.85
2022-09-17T18:49:33.745Z,13.98
2022-09-17T18:52:01.261Z,12.52
2022-09-17T18:54:28.037Z,14.20
2022-09-17T18:56:54.921Z,15.13
2022-09-17T18:59:21.911Z,13.43
2022-09-17T19:01:49.098Z,15.38
2022-09-17T19:04:15.935Z,13.75
2022-09-17T19:06:43.014Z,12.43
2022-09-17T19:09:11.645Z,13.07
2022-09-17T19:11:38.531Z,14.23
2022-09-17T19:14:05.744Z,14.02
2022-09-17T19:16:32.719Z,15.38
2022-09-17T19:18:59.604Z,13.07
2022-09-17T19:21:26.844Z,13.65
2022-09-17T19:23:54.306Z,14.18
2022-09-17T19:26:23.427Z,12.55
2022-09-17T19:28:58.179Z,12.27
2022-09-17T19:31:25.718Z,13.10
2022-09-17T19:33:53.143Z,13.60
2022-09-17T19:36:21.334Z,13.07
2022-09-17T19:38:48.630Z,12.63
2022-09-17T19:41:18.372Z,10.52
2022-09-17T19:43:53.094Z,14.77
2022-09-17T19:46:24.188Z,11.60
2022-09-17T19:48:56.001Z,10.52
2022-09-17T19:51:25.004Z,12.25
2022-09-17T19:53:52.277Z,12.05
2022-09-17T19:56:21.880Z,10.73
2022-09-17T19:58:49.213Z,11.25
2022-09-17T20:01:16.961Z,10.73
2022-09-17T20:03:45.079Z,11.90
2022-09-17T20:06:14.822Z,12.20
2022-09-17T20:08:49.800Z,10.55
2022-09-17T20:11:17.620Z,12.00
2022-09-17T20:13:44.488Z,12.63
2022-09-17T20:16:12.821Z,15.05
2022-09-17T20:18:40.072Z,13.05
2022-09-17T20:21:09.014Z,14.77
2022-09-17T20:23:36.365Z,21.73
2022-09-17T20:26:04.308Z,16.40
2022-09-17T20:28:31.382Z,18.20
2022-09-17T20:31:06.601Z,21.00
2022-09-17T20:33:34.529Z,19.73
2022-09-17T20:36:03.280Z,20.40
2022-09-17T20:39:10.007Z,22.20
2022-09-17T20:41:18.233Z,20.85
2022-09-17T20:43:47.788Z,19.30
2022-09-17T20:46:15.771Z,23.83
2022-09-17T20:48:43.295Z,20.00
2022-09-17T20:51:14.725Z,19.63
2022-09-17T20:53:42.121Z,22.88
2022-09-17T20:56:14.470Z,20.35
2022-09-17T20:58:48.990Z,19.02
2022-09-17T21:01:20.544Z,23.02
2022-09-17T21:03:50.251Z,17.58
2022-09-17T21:06:22.167Z,18.00
2022-09-17T21:08:49.698Z,17.25
2022-09-17T21:11:17.230Z,17.77
2022-09-17T21:13:44.519Z,15.85
2022-09-17T21:16:12.093Z,16.40
2022-09-17T21:18:40.112Z,18.35
2022-09-17T21:21:09.119Z,18.02
2022-09-17T21:23:37.302Z,19.38
2022-09-17T21:26:11.699Z,16.02
2022-09-17T21:28:39.736Z,16.90
2022-09-17T21:31:27.345Z,19.95
2022-09-17T21:34:00.298Z,19.75
2022-09-17T21:36:29.782Z,17.33
2022-09-17T21:38:59.818Z,19.10
2022-09-17T21:41:27.049Z,20.95
2022-09-17T21:43:54.262Z,18.13
2022-09-17T21:46:23.492Z,17.35
2022-09-17T21:48:56.133Z,19.08
2022-09-17T21:51:26.393Z,19.13
2022-09-17T21:53:55.282Z,20.30
2022-09-17T21:56:22.293Z,18.02
2022-09-17T21:58:57.236Z,19.08
2022-09-17T22:01:27.269Z,18.45
2022-09-17T22:03:55.353Z,19.58
2022-09-17T22:06:24.905Z,18.70
2022-09-17T22:08:52.991Z,17.38
2022-09-17T22:11:29.537Z,16.63
2022-09-17T22:13:57.557Z,16.27
2022-09-17T22:16:25.256Z,15.45
2022-09-17T22:18:52.384Z,18.17
2022-09-17T22:21:21.765Z,14.80
2022-09-17T22:23:49.684Z,15.60
2022-09-17T22:26:17.197Z,16.80
2022-09-17T22:28:44.507Z,17.35
2022-09-17T22:31:12.415Z,16.40
2022-09-17T22:33:45.119Z,18.02
2022-09-17T22:36:14.644Z,17.80
2022-09-17T22:38:42.258Z,18.15
2022-09-17T22:41:13.212Z,17.65
2022-09-17T22:43:40.418Z,17.77
2022-09-17T22:46:16.725Z,17.55
2022-09-17T22:48:44.044Z,19.45
2022-09-17T22:51:11.028Z,19.23
2022-09-17T22:53:38.989Z,18.27
2022-09-17T22:56:09.309Z,18.40
2022-09-17T22:58:36.296Z,20.35
2022-09-17T23:01:05.675Z,19.55
2022-09-17T23:03:33.108Z,21.35
2022-09-17T23:06:01.744Z,18.65
2022-09-17T23:08:29.100Z,17.80
2022-09-17T23:10:56.572Z,19.75
2022-09-17T23:13:23.746Z,17.98
2022-09-17T23:15:50.664Z,15.80
2022-09-17T23:18:17.790Z,16.88
2022-09-17T23:20:44.698Z,16.33
2022-09-17T23:23:11.653Z,19.42
2022-09-17T23:25:38.693Z,16.13
2022-09-17T23:28:05.509Z,17.67
2022-09-17T23:30:32.410Z,20.52
2022-09-17T23:32:59.398Z,18.10
2022-09-17T23:35:26.253Z,18.50
2022-09-17T23:37:53.093Z,17.35
2022-09-17T23:40:22.009Z,21.58
2022-09-17T23:42:48.961Z,20.55
2022-09-17T23:45:15.814Z,16.17
2022-09-17T23:47:42.830Z,18.75
2022-09-17T23:50:09.784Z,19.48
2022-09-17T23:52:36.597Z,17.25
2022-09-17T23:55:04.929Z,18.17
2022-09-17T23:57:31.783Z,16.75
2022-09-17T23:59:58.752Z,21.30
